Forbes Field
KFOE : rendu visible

Aérodrome :











RETROUVEZ-NOUS SUR...

 
LOGIN :

S'inscrire | Disclaimer

   EN    FR    IT 

 









Légende :    VFR   VFR Marginal   IFR   IFR Intensif   IFR Très Intensif
Visi : 
Plafond : 
>= 8 km
>= 3000ft
5 à 8 km
1000 à 3000 ft
1500m à 5 km
500 à 1000 ft
800 à 1500m
200 à 500 ft
< 800m
< 200 ft
Symboles :   Orages  Brouillard  Fortes neiges  Fortes précipitations  Vent > 20 kt






- Altitude de l'aérodrome : 1078 ft
- Code IATA : FOE


KFOE - Forbes Field

DERNIER METAR :
  • 050853Z AUTO 00000KT 5SM BR CLR 23/22 A2997 RMK AO2 SLP137 T02280217 56007

METARs EXPIRÉS :
  • 050753Z AUTO 11004KT 6SM BR CLR 23/22 A2997 RMK AO2 SLP137 T02330217

TAF KFOE
Valide du 05 à 08h jusqu'au 06 à 06h UTC


050809Z 0508/0606 08003KT 5SM BR HZ FEW050
FM051300 10005KT P6SM FEW050
FM051600 11007KT P6SM BKN040
FM060000 10005KT P6SM SCT050
FIR KZKC / Amérique du Nord



MET'MAP, la Météo Aéronautique d'un coup d'oeil ! - Copyright ORBIFLY Décembre 2007 - Disclaimer

ORBIFLY MET'MAP TEAM :

Programmation & Développement : Alexandra Zaïnal
Sur une idée originale de : Baudouin d'Aumeries
Assistance à la programmation : Marc-Olivier Méhu
Soutien technique & logistique : Manuel Goepfert

Contact : metmap@orbifly.com




SOURCES & CREDITS :

   NOAA       Earth
Advisory